sensor_id;sensor_type;location;lat;lon;timestamp;temperature;humidity
20418;DHT22;10368;51.436;6.774;2022-07-23T00:00:19;18.00;99.90
20418;DHT22;10368;51.436;6.774;2022-07-23T00:02:47;18.00;99.90
20418;DHT22;10368;51.436;6.774;2022-07-23T00:05:14;18.00;99.90
20418;DHT22;10368;51.436;6.774;2022-07-23T00:07:41;18.10;99.90
20418;DHT22;10368;51.436;6.774;2022-07-23T00:10:09;18.00;99.90
20418;DHT22;10368;51.436;6.774;2022-07-23T00:12:36;18.00;99.90
20418;DHT22;10368;51.436;6.774;2022-07-23T00:15:18;18.10;99.90
20418;DHT22;10368;51.436;6.774;2022-07-23T00:17:45;18.10;99.90
20418;DHT22;10368;51.436;6.774;2022-07-23T00:20:13;18.10;99.90
20418;DHT22;10368;51.436;6.774;2022-07-23T00:22:51;18.20;99.90
20418;DHT22;10368;51.436;6.774;2022-07-23T00:25:18;18.10;99.90
20418;DHT22;10368;51.436;6.774;2022-07-23T00:27:56;18.00;99.90
20418;DHT22;10368;51.436;6.774;2022-07-23T00:30:24;18.10;99.90
20418;DHT22;10368;51.436;6.774;2022-07-23T00:32:56;18.10;99.90
20418;DHT22;10368;51.436;6.774;2022-07-23T00:35:28;18.10;99.90
20418;DHT22;10368;51.436;6.774;2022-07-23T00:37:57;18.10;99.90
20418;DHT22;10368;51.436;6.774;2022-07-23T00:40:24;17.90;99.90
20418;DHT22;10368;51.436;6.774;2022-07-23T00:42:52;17.80;99.90
20418;DHT22;10368;51.436;6.774;2022-07-23T00:45:19;17.80;99.90
20418;DHT22;10368;51.436;6.774;2022-07-23T00:47:46;18.00;99.90
20418;DHT22;10368;51.436;6.774;2022-07-23T00:50:14;17.80;99.90
20418;DHT22;10368;51.436;6.774;2022-07-23T00:52:41;17.70;99.90
20418;DHT22;10368;51.436;6.774;2022-07-23T00:55:09;17.80;99.90
20418;DHT22;10368;51.436;6.774;2022-07-23T00:57:37;17.70;99.90
20418;DHT22;10368;51.436;6.774;2022-07-23T01:00:07;17.70;99.90
20418;DHT22;10368;51.436;6.774;2022-07-23T01:02:34;17.80;99.90
20418;DHT22;10368;51.436;6.774;2022-07-23T01:05:01;17.70;99.90
20418;DHT22;10368;51.436;6.774;2022-07-23T01:07:29;17.70;99.90
20418;DHT22;10368;51.436;6.774;2022-07-23T01:09:56;17.70;99.90
20418;DHT22;10368;51.436;6.774;2022-07-23T01:12:24;17.70;99.90
20418;DHT22;10368;51.436;6.774;2022-07-23T01:14:59;17.70;99.90
20418;DHT22;10368;51.436;6.774;2022-07-23T01:17:27;17.70;99.90
20418;DHT22;10368;51.436;6.774;2022-07-23T01:19:54;17.70;99.90
20418;DHT22;10368;51.436;6.774;2022-07-23T01:22:21;17.80;99.90
20418;DHT22;10368;51.436;6.774;2022-07-23T01:24:48;17.70;99.90
20418;DHT22;10368;51.436;6.774;2022-07-23T01:27:15;17.80;99.90
20418;DHT22;10368;51.436;6.774;2022-07-23T01:29:44;17.70;99.90
20418;DHT22;10368;51.436;6.774;2022-07-23T01:32:11;17.70;99.90
20418;DHT22;10368;51.436;6.774;2022-07-23T01:34:38;17.70;99.90
20418;DHT22;10368;51.436;6.774;2022-07-23T01:37:07;17.70;99.90
20418;DHT22;10368;51.436;6.774;2022-07-23T01:39:34;17.70;99.90
20418;DHT22;10368;51.436;6.774;2022-07-23T01:42:01;17.80;99.90
20418;DHT22;10368;51.436;6.774;2022-07-23T01:44:28;17.80;99.90
20418;DHT22;10368;51.436;6.774;2022-07-23T01:46:56;17.70;99.90
20418;DHT22;10368;51.436;6.774;2022-07-23T01:49:23;17.70;99.90
20418;DHT22;10368;51.436;6.774;2022-07-23T01:51:50;17.70;99.90
20418;DHT22;10368;51.436;6.774;2022-07-23T01:54:31;17.60;99.90
20418;DHT22;10368;51.436;6.774;2022-07-23T01:56:59;17.60;99.90
20418;DHT22;10368;51.436;6.774;2022-07-23T04:49:13;17.60;99.90
20418;DHT22;10368;51.436;6.774;2022-07-23T04:51:40;16.50;99.90
20418;DHT22;10368;51.436;6.774;2022-07-23T04:54:07;16.40;99.90
20418;DHT22;10368;51.436;6.774;2022-07-23T04:56:34;16.40;99.90
20418;DHT22;10368;51.436;6.774;2022-07-23T04:59:01;16.40;99.90
20418;DHT22;10368;51.436;6.774;2022-07-23T05:01:28;16.40;99.90
20418;DHT22;10368;51.436;6.774;2022-07-23T05:03:55;16.40;99.90
20418;DHT22;10368;51.436;6.774;2022-07-23T05:06:22;16.50;99.90
20418;DHT22;10368;51.436;6.774;2022-07-23T05:08:49;16.50;99.90
20418;DHT22;10368;51.436;6.774;2022-07-23T05:11:16;16.50;99.90
20418;DHT22;10368;51.436;6.774;2022-07-23T05:13:43;16.50;99.90
20418;DHT22;10368;51.436;6.774;2022-07-23T05:16:10;16.50;99.90
20418;DHT22;10368;51.436;6.774;2022-07-23T05:18:37;16.50;99.90
20418;DHT22;10368;51.436;6.774;2022-07-23T05:21:04;16.50;99.90
20418;DHT22;10368;51.436;6.774;2022-07-23T05:23:31;16.60;99.90
20418;DHT22;10368;51.436;6.774;2022-07-23T05:25:58;16.60;99.90
20418;DHT22;10368;51.436;6.774;2022-07-23T05:28:26;16.60;99.90
20418;DHT22;10368;51.436;6.774;2022-07-23T05:30:53;16.60;99.90
20418;DHT22;10368;51.436;6.774;2022-07-23T05:33:20;16.60;99.90
20418;DHT22;10368;51.436;6.774;2022-07-23T05:35:47;16.70;99.90
20418;DHT22;10368;51.436;6.774;2022-07-23T05:38:14;16.70;99.90
20418;DHT22;10368;51.436;6.774;2022-07-23T05:40:41;16.60;99.90
20418;DHT22;10368;51.436;6.774;2022-07-23T05:43:08;16.50;99.90
20418;DHT22;10368;51.436;6.774;2022-07-23T05:45:35;16.40;99.90
20418;DHT22;10368;51.436;6.774;2022-07-23T05:48:03;16.40;99.90
20418;DHT22;10368;51.436;6.774;2022-07-23T05:50:30;16.60;99.90
20418;DHT22;10368;51.436;6.774;2022-07-23T05:52:57;16.70;99.90
20418;DHT22;10368;51.436;6.774;2022-07-23T05:55:24;16.70;99.90
20418;DHT22;10368;51.436;6.774;2022-07-23T05:57:51;16.70;99.90
20418;DHT22;10368;51.436;6.774;2022-07-23T06:00:18;16.70;99.90
20418;DHT22;10368;51.436;6.774;2022-07-23T06:02:45;16.60;99.90
20418;DHT22;10368;51.436;6.774;2022-07-23T06:05:19;16.60;99.90
20418;DHT22;10368;51.436;6.774;2022-07-23T06:07:46;16.50;99.90
20418;DHT22;10368;51.436;6.774;2022-07-23T06:10:13;16.70;99.90
20418;DHT22;10368;51.436;6.774;2022-07-23T06:12:41;16.60;99.90
20418;DHT22;10368;51.436;6.774;2022-07-23T06:15:09;16.70;99.90
20418;DHT22;10368;51.436;6.774;2022-07-23T06:17:38;16.70;99.90
20418;DHT22;10368;51.436;6.774;2022-07-23T06:20:09;16.70;99.90
20418;DHT22;10368;51.436;6.774;2022-07-23T06:22:36;16.70;99.90
20418;DHT22;10368;51.436;6.774;2022-07-23T06:25:04;16.80;99.90
20418;DHT22;10368;51.436;6.774;2022-07-23T06:27:38;16.90;99.90
20418;DHT22;10368;51.436;6.774;2022-07-23T06:30:05;17.00;99.90
20418;DHT22;10368;51.436;6.774;2022-07-23T06:32:34;17.00;99.90
20418;DHT22;10368;51.436;6.774;2022-07-23T06:35:01;16.90;99.90
20418;DHT22;10368;51.436;6.774;2022-07-23T06:37:28;17.00;99.90
20418;DHT22;10368;51.436;6.774;2022-07-23T06:39:56;17.10;99.90
20418;DHT22;10368;51.436;6.774;2022-07-23T06:42:23;17.10;99.90
20418;DHT22;10368;51.436;6.774;2022-07-23T06:44:50;17.00;99.90
20418;DHT22;10368;51.436;6.774;2022-07-23T06:47:17;17.10;99.90
20418;DHT22;10368;51.436;6.774;2022-07-23T06:49:44;17.20;99.90
20418;DHT22;10368;51.436;6.774;2022-07-23T06:52:11;17.20;99.90
20418;DHT22;10368;51.436;6.774;2022-07-23T06:54:38;17.30;99.90
20418;DHT22;10368;51.436;6.774;2022-07-23T06:57:05;17.30;99.90
20418;DHT22;10368;51.436;6.774;2022-07-23T06:59:32;17.30;99.90
20418;DHT22;10368;51.436;6.774;2022-07-23T07:01:59;17.40;99.90
20418;DHT22;10368;51.436;6.774;2022-07-23T07:04:27;17.30;99.90
20418;DHT22;10368;51.436;6.774;2022-07-23T07:06:54;17.40;99.90
20418;DHT22;10368;51.436;6.774;2022-07-23T07:09:21;17.40;99.90
20418;DHT22;10368;51.436;6.774;2022-07-23T07:11:48;17.40;99.90
20418;DHT22;10368;51.436;6.774;2022-07-23T07:14:15;17.50;99.90
20418;DHT22;10368;51.436;6.774;2022-07-23T07:16:42;17.60;99.90
20418;DHT22;10368;51.436;6.774;2022-07-23T07:19:09;17.60;99.90
20418;DHT22;10368;51.436;6.774;2022-07-23T07:21:36;17.70;99.90
20418;DHT22;10368;51.436;6.774;2022-07-23T07:24:04;17.70;99.90
20418;DHT22;10368;51.436;6.774;2022-07-23T07:26:31;17.70;99.90
20418;DHT22;10368;51.436;6.774;2022-07-23T07:28:58;17.60;99.90
20418;DHT22;10368;51.436;6.774;2022-07-23T07:31:25;17.70;99.90
20418;DHT22;10368;51.436;6.774;2022-07-23T07:33:53;17.80;99.90
20418;DHT22;10368;51.436;6.774;2022-07-23T07:36:21;18.00;99.90
20418;DHT22;10368;51.436;6.774;2022-07-23T07:38:48;18.10;99.90
20418;DHT22;10368;51.436;6.774;2022-07-23T07:41:15;18.20;99.90
20418;DHT22;10368;51.436;6.774;2022-07-23T07:43:42;18.40;99.90
20418;DHT22;10368;51.436;6.774;2022-07-23T07:46:09;18.50;99.90
20418;DHT22;10368;51.436;6.774;2022-07-23T07:48:37;18.60;99.90
20418;DHT22;10368;51.436;6.774;2022-07-23T07:51:05;18.70;99.90
20418;DHT22;10368;51.436;6.774;2022-07-23T07:53:32;18.70;99.90
20418;DHT22;10368;51.436;6.774;2022-07-23T07:55:59;18.70;99.90
20418;DHT22;10368;51.436;6.774;2022-07-23T07:58:26;18.70;99.90
20418;DHT22;10368;51.436;6.774;2022-07-23T08:00:54;18.80;99.90
20418;DHT22;10368;51.436;6.774;2022-07-23T08:03:21;18.80;99.90
20418;DHT22;10368;51.436;6.774;2022-07-23T08:05:48;18.90;99.90
20418;DHT22;10368;51.436;6.774;2022-07-23T08:08:15;19.00;99.90
20418;DHT22;10368;51.436;6.774;2022-07-23T08:10:42;19.10;99.90
20418;DHT22;10368;51.436;6.774;2022-07-23T08:13:13;19.00;99.90
20418;DHT22;10368;51.436;6.774;2022-07-23T08:15:42;19.00;99.90
20418;DHT22;10368;51.436;6.774;2022-07-23T08:18:10;18.90;99.90
20418;DHT22;10368;51.436;6.774;2022-07-23T08:20:37;19.00;99.90
20418;DHT22;10368;51.436;6.774;2022-07-23T08:23:06;19.00;99.90
20418;DHT22;10368;51.436;6.774;2022-07-23T08:25:41;19.10;99.90
20418;DHT22;10368;51.436;6.774;2022-07-23T08:28:10;19.10;99.90
20418;DHT22;10368;51.436;6.774;2022-07-23T08:30:39;19.00;99.90
20418;DHT22;10368;51.436;6.774;2022-07-23T08:33:08;19.10;99.90
20418;DHT22;10368;51.436;6.774;2022-07-23T08:35:58;19.20;99.90
20418;DHT22;10368;51.436;6.774;2022-07-23T08:38:25;19.10;99.90
20418;DHT22;10368;51.436;6.774;2022-07-23T08:40:54;19.20;99.90
20418;DHT22;10368;51.436;6.774;2022-07-23T08:43:24;19.30;99.90
20418;DHT22;10368;51.436;6.774;2022-07-23T08:45:53;19.40;99.90
20418;DHT22;10368;51.436;6.774;2022-07-23T08:48:25;19.40;99.90
20418;DHT22;10368;51.436;6.774;2022-07-23T08:50:59;19.40;99.90
20418;DHT22;10368;51.436;6.774;2022-07-23T08:53:29;19.50;99.90
20418;DHT22;10368;51.436;6.774;2022-07-23T08:55:59;19.50;99.90
20418;DHT22;10368;51.436;6.774;2022-07-23T08:58:28;19.60;99.90
20418;DHT22;10368;51.436;6.774;2022-07-23T09:00:56;19.70;99.90
20418;DHT22;10368;51.436;6.774;2022-07-23T09:03:29;19.80;99.90
20418;DHT22;10368;51.436;6.774;2022-07-23T09:05:58;19.90;99.90
20418;DHT22;10368;51.436;6.774;2022-07-23T09:11:05;20.00;99.90
20418;DHT22;10368;51.436;6.774;2022-07-23T09:13:41;19.90;99.90
20418;DHT22;10368;51.436;6.774;2022-07-23T09:16:18;19.90;99.90
20418;DHT22;10368;51.436;6.774;2022-07-23T09:18:55;19.90;99.90
20418;DHT22;10368;51.436;6.774;2022-07-23T09:24:02;20.00;99.90
20418;DHT22;10368;51.436;6.774;2022-07-23T09:26:41;20.10;99.90
20418;DHT22;10368;51.436;6.774;2022-07-23T09:36:51;20.40;99.90
20418;DHT22;10368;51.436;6.774;2022-07-23T09:39:29;20.40;99.90
20418;DHT22;10368;51.436;6.774;2022-07-23T09:41:58;20.60;99.90
20418;DHT22;10368;51.436;6.774;2022-07-23T09:44:46;20.70;99.90
20418;DHT22;10368;51.436;6.774;2022-07-23T09:47:14;20.70;99.90
20418;DHT22;10368;51.436;6.774;2022-07-23T09:50:00;20.80;99.90
20418;DHT22;10368;51.436;6.774;2022-07-23T09:52:30;20.70;99.90
20418;DHT22;10368;51.436;6.774;2022-07-23T09:55:04;20.60;99.90
20418;DHT22;10368;51.436;6.774;2022-07-23T09:57:32;20.70;99.90
20418;DHT22;10368;51.436;6.774;2022-07-23T10:00:05;21.00;99.90
20418;DHT22;10368;51.436;6.774;2022-07-23T10:02:33;20.90;99.90
20418;DHT22;10368;51.436;6.774;2022-07-23T10:05:04;21.00;99.90
20418;DHT22;10368;51.436;6.774;2022-07-23T10:07:34;21.00;99.90
20418;DHT22;10368;51.436;6.774;2022-07-23T10:10:02;21.10;99.90
20418;DHT22;10368;51.436;6.774;2022-07-23T10:12:30;21.10;99.90
20418;DHT22;10368;51.436;6.774;2022-07-23T10:14:58;21.20;99.90
20418;DHT22;10368;51.436;6.774;2022-07-23T10:17:30;21.00;99.90
20418;DHT22;10368;51.436;6.774;2022-07-23T10:19:58;21.20;99.90
20418;DHT22;10368;51.436;6.774;2022-07-23T10:25:34;21.60;99.90
20418;DHT22;10368;51.436;6.774;2022-07-23T10:34:12;21.80;99.90
20418;DHT22;10368;51.436;6.774;2022-07-23T10:36:55;21.90;99.90
20418;DHT22;10368;51.436;6.774;2022-07-23T10:39:31;21.90;99.90
20418;DHT22;10368;51.436;6.774;2022-07-23T10:42:13;22.00;99.90
20418;DHT22;10368;51.436;6.774;2022-07-23T10:44:43;22.50;99.90
20418;DHT22;10368;51.436;6.774;2022-07-23T10:47:11;22.40;99.90
20418;DHT22;10368;51.436;6.774;2022-07-23T10:49:45;22.60;99.90
20418;DHT22;10368;51.436;6.774;2022-07-23T10:57:28;22.60;99.90
20418;DHT22;10368;51.436;6.774;2022-07-23T11:02:35;22.80;99.90
20418;DHT22;10368;51.436;6.774;2022-07-23T11:05:10;23.00;99.90
20418;DHT22;10368;51.436;6.774;2022-07-23T11:10:43;23.30;97.70
20418;DHT22;10368;51.436;6.774;2022-07-23T11:13:25;23.40;98.20
20418;DHT22;10368;51.436;6.774;2022-07-23T12:02:31;23.60;97.30
20418;DHT22;10368;51.436;6.774;2022-07-23T12:04:58;26.60;99.90
20418;DHT22;10368;51.436;6.774;2022-07-23T12:10:04;27.00;99.90
20418;DHT22;10368;51.436;6.774;2022-07-23T12:12:36;26.70;99.90
20418;DHT22;10368;51.436;6.774;2022-07-23T12:15:04;26.50;99.90
20418;DHT22;10368;51.436;6.774;2022-07-23T17:22:27;28.20;75.60
20418;DHT22;10368;51.436;6.774;2022-07-23T17:24:54;26.70;80.40
20418;DHT22;10368;51.436;6.774;2022-07-23T17:27:21;26.50;80.60
20418;DHT22;10368;51.436;6.774;2022-07-23T17:29:49;26.40;81.10
20418;DHT22;10368;51.436;6.774;2022-07-23T17:32:16;26.60;80.20
20418;DHT22;10368;51.436;6.774;2022-07-23T17:34:43;26.80;80.00
20418;DHT22;10368;51.436;6.774;2022-07-23T17:37:10;26.90;80.50
20418;DHT22;10368;51.436;6.774;2022-07-23T17:39:37;26.90;80.50
20418;DHT22;10368;51.436;6.774;2022-07-23T17:42:04;26.70;80.80
20418;DHT22;10368;51.436;6.774;2022-07-23T17:44:32;26.50;81.50
20418;DHT22;10368;51.436;6.774;2022-07-23T17:46:59;26.60;81.30
20418;DHT22;10368;51.436;6.774;2022-07-23T17:49:26;26.50;80.50
20418;DHT22;10368;51.436;6.774;2022-07-23T17:51:53;26.40;80.70
20418;DHT22;10368;51.436;6.774;2022-07-23T17:54:20;26.50;81.80
20418;DHT22;10368;51.436;6.774;2022-07-23T17:56:47;26.10;83.30
20418;DHT22;10368;51.436;6.774;2022-07-23T17:59:14;26.10;82.50
20418;DHT22;10368;51.436;6.774;2022-07-23T18:01:41;26.30;81.80
20418;DHT22;10368;51.436;6.774;2022-07-23T18:04:08;26.50;81.50
20418;DHT22;10368;51.436;6.774;2022-07-23T18:06:37;26.30;83.00
20418;DHT22;10368;51.436;6.774;2022-07-23T18:09:04;26.20;83.70
20418;DHT22;10368;51.436;6.774;2022-07-23T18:11:32;26.20;82.60
20418;DHT22;10368;51.436;6.774;2022-07-23T18:14:04;26.10;83.90
20418;DHT22;10368;51.436;6.774;2022-07-23T18:16:31;26.00;83.90
20418;DHT22;10368;51.436;6.774;2022-07-23T18:18:58;25.80;85.20
20418;DHT22;10368;51.436;6.774;2022-07-23T18:21:26;25.80;84.20
20418;DHT22;10368;51.436;6.774;2022-07-23T18:23:53;25.80;84.00
20418;DHT22;10368;51.436;6.774;2022-07-23T18:26:20;25.60;85.80
20418;DHT22;10368;51.436;6.774;2022-07-23T18:28:47;25.50;84.50
20418;DHT22;10368;51.436;6.774;2022-07-23T18:31:15;25.50;84.70
20418;DHT22;10368;51.436;6.774;2022-07-23T18:33:42;25.50;84.20
20418;DHT22;10368;51.436;6.774;2022-07-23T18:36:09;25.40;85.70
20418;DHT22;10368;51.436;6.774;2022-07-23T18:38:39;25.40;85.00
20418;DHT22;10368;51.436;6.774;2022-07-23T18:41:06;25.30;84.10
20418;DHT22;10368;51.436;6.774;2022-07-23T18:43:33;25.30;84.60
20418;DHT22;10368;51.436;6.774;2022-07-23T18:46:02;25.40;83.60
20418;DHT22;10368;51.436;6.774;2022-07-23T18:48:29;25.30;83.80
20418;DHT22;10368;51.436;6.774;2022-07-23T18:50:57;25.30;84.90
20418;DHT22;10368;51.436;6.774;2022-07-23T18:53:24;25.10;86.90
20418;DHT22;10368;51.436;6.774;2022-07-23T18:55:51;25.00;87.80
20418;DHT22;10368;51.436;6.774;2022-07-23T18:58:17;25.00;87.10
20418;DHT22;10368;51.436;6.774;2022-07-23T19:00:46;25.00;87.20
20418;DHT22;10368;51.436;6.774;2022-07-23T19:03:13;24.90;87.50
20418;DHT22;10368;51.436;6.774;2022-07-23T19:05:40;24.90;88.40
20418;DHT22;10368;51.436;6.774;2022-07-23T19:08:07;24.90;88.50
20418;DHT22;10368;51.436;6.774;2022-07-23T19:10:36;24.90;89.00
20418;DHT22;10368;51.436;6.774;2022-07-23T19:13:04;24.80;89.10
20418;DHT22;10368;51.436;6.774;2022-07-23T19:15:32;24.60;89.00
20418;DHT22;10368;51.436;6.774;2022-07-23T19:18:00;24.50;89.30
20418;DHT22;10368;51.436;6.774;2022-07-23T19:20:27;24.60;89.60
20418;DHT22;10368;51.436;6.774;2022-07-23T19:22:54;24.60;90.00
20418;DHT22;10368;51.436;6.774;2022-07-23T19:25:21;24.40;89.90
20418;DHT22;10368;51.436;6.774;2022-07-23T19:27:48;24.40;90.20
20418;DHT22;10368;51.436;6.774;2022-07-23T19:30:15;24.40;90.50
20418;DHT22;10368;51.436;6.774;2022-07-23T19:32:42;24.40;90.80
20418;DHT22;10368;51.436;6.774;2022-07-23T19:35:09;24.30;91.00
20418;DHT22;10368;51.436;6.774;2022-07-23T19:37:36;24.20;91.20
20418;DHT22;10368;51.436;6.774;2022-07-23T19:40:06;24.20;91.50
20418;DHT22;10368;51.436;6.774;2022-07-23T19:42:35;24.20;91.60
20418;DHT22;10368;51.436;6.774;2022-07-23T19:45:04;24.10;91.50
20418;DHT22;10368;51.436;6.774;2022-07-23T19:47:32;24.10;91.50
20418;DHT22;10368;51.436;6.774;2022-07-23T19:49:59;24.10;91.40
20418;DHT22;10368;51.436;6.774;2022-07-23T19:52:26;23.80;91.90
20418;DHT22;10368;51.436;6.774;2022-07-23T19:54:53;23.80;92.30
20418;DHT22;10368;51.436;6.774;2022-07-23T19:57:20;23.80;92.30
20418;DHT22;10368;51.436;6.774;2022-07-23T19:59:47;23.80;92.20
20418;DHT22;10368;51.436;6.774;2022-07-23T20:02:14;23.80;92.60
20418;DHT22;10368;51.436;6.774;2022-07-23T20:26:56;23.70;92.70
20418;DHT22;10368;51.436;6.774;2022-07-23T20:29:24;23.20;95.00
20418;DHT22;10368;51.436;6.774;2022-07-23T20:31:51;23.20;94.70
20418;DHT22;10368;51.436;6.774;2022-07-23T20:34:18;23.20;94.90
20418;DHT22;10368;51.436;6.774;2022-07-23T20:36:46;23.10;94.80
20418;DHT22;10368;51.436;6.774;2022-07-23T20:39:13;23.10;95.40
20418;DHT22;10368;51.436;6.774;2022-07-23T20:41:40;23.00;95.30
20418;DHT22;10368;51.436;6.774;2022-07-23T21:06:19;22.90;95.20
20418;DHT22;10368;51.436;6.774;2022-07-23T21:08:46;22.60;97.10
20418;DHT22;10368;51.436;6.774;2022-07-23T21:11:13;22.60;97.30
20418;DHT22;10368;51.436;6.774;2022-07-23T21:13:40;22.50;97.50
20418;DHT22;10368;51.436;6.774;2022-07-23T21:16:08;22.50;97.50
20418;DHT22;10368;51.436;6.774;2022-07-23T21:18:35;22.50;97.60
20418;DHT22;10368;51.436;6.774;2022-07-23T21:21:02;22.50;97.60
20418;DHT22;10368;51.436;6.774;2022-07-23T21:23:40;22.40;97.50
20418;DHT22;10368;51.436;6.774;2022-07-23T21:26:08;22.40;97.80
20418;DHT22;10368;51.436;6.774;2022-07-23T21:28:55;22.40;97.70
20418;DHT22;10368;51.436;6.774;2022-07-23T21:31:22;22.30;97.90
20418;DHT22;10368;51.436;6.774;2022-07-23T21:33:49;22.30;97.90
20418;DHT22;10368;51.436;6.774;2022-07-23T21:36:16;22.30;97.90
20418;DHT22;10368;51.436;6.774;2022-07-23T21:38:43;22.30;98.20
20418;DHT22;10368;51.436;6.774;2022-07-23T21:41:10;22.20;98.10
20418;DHT22;10368;51.436;6.774;2022-07-23T21:43:37;22.10;98.20
